Time;durP1;ratioP1;P1;durP2;ratioP2;P2;SDS_P1;SDS_P2;PMS_P1;PMS_P2;Temp;Humidity;BMP_temperature;BMP_pressure;BME280_temperature;BME280_humidity;BME280_pressure;Samples;Min_cycle;Max_cycle;Signal;HPM_P1;HPM_P2
2021/11/17 02:28:35;;;;;;;13.43;8.67;;;7.60;87.10;;;;;;4911669;29;20460;-41
2021/11/17 02:31:16;;;;;;;14.63;9.10;;;7.60;87.20;;;;;;4882009;29;20471;-41
2021/11/17 02:34:03;;;;;;;13.87;9.80;;;7.60;87.10;;;;;;4909317;29;20538;-41
2021/11/17 02:36:42;;;;;;;16.43;10.50;;;7.70;87.00;;;;;;4910045;29;20464;-42
2021/11/17 02:39:30;;;;;;;12.00;7.70;;;7.70;87.10;;;;;;4910114;29;20464;-41
2021/11/17 02:42:22;;;;;;;11.87;9.57;;;7.60;87.10;;;;;;4912370;29;20468;-41
2021/11/17 02:45:27;;;;;;;15.50;9.30;;;7.60;87.10;;;;;;4909507;29;20469;-41
2021/11/17 02:48:06;;;;;;;16.87;9.63;;;7.60;87.30;;;;;;4911122;29;20488;-41
2021/11/17 02:50:42;;;;;;;15.13;8.10;;;7.60;87.20;;;;;;4911494;29;20855;-42
2021/11/17 02:53:28;;;;;;;14.20;8.67;;;7.70;87.10;;;;;;4911321;29;20837;-41
2021/11/17 02:56:04;;;;;;;16.43;9.20;;;7.70;87.00;;;;;;4910803;29;20567;-41
2021/11/17 02:58:44;;;;;;;14.03;8.70;;;7.70;86.90;;;;;;4908391;29;20846;-41
2021/11/17 03:01:24;;;;;;;14.80;9.33;;;7.70;86.90;;;;;;4909003;29;21004;-41
2021/11/17 03:03:57;;;;;;;12.33;8.60;;;7.60;87.10;;;;;;4897228;29;20461;-41
2021/11/17 03:06:47;;;;;;;12.80;8.03;;;7.60;87.00;;;;;;4894736;29;20455;-41
2021/11/17 03:09:23;;;;;;;14.33;8.93;;;7.60;87.10;;;;;;4900663;29;20496;-41
2021/11/17 03:12:18;;;;;;;14.47;8.97;;;7.70;87.00;;;;;;4911818;29;20460;-41
2021/11/17 03:14:53;;;;;;;13.83;9.03;;;7.60;87.10;;;;;;4909757;29;20461;-42
2021/11/17 03:17:41;;;;;;;10.97;7.47;;;7.70;86.90;;;;;;4910606;29;20476;-41
2021/11/17 03:20:44;;;;;;;13.07;8.17;;;7.60;87.00;;;;;;4893769;29;20567;-41
2021/11/17 03:23:25;;;;;;;12.60;7.93;;;7.60;87.10;;;;;;4842454;29;20499;-41
2021/11/17 03:26:10;;;;;;;11.93;7.33;;;7.60;86.90;;;;;;4913895;29;20535;-41
2021/11/17 03:29:11;;;;;;;13.03;9.00;;;7.60;87.00;;;;;;4912052;29;20464;-41
2021/11/17 03:31:40;;;;;;;11.13;7.67;;;7.60;87.10;;;;;;4894841;29;20490;-41
2021/11/17 03:34:41;;;;;;;15.67;7.30;;;7.60;87.10;;;;;;4908309;29;20992;-41
2021/11/17 03:37:29;;;;;;;13.80;8.70;;;7.70;87.00;;;;;;4913741;29;20952;-40
2021/11/17 03:40:06;;;;;;;15.00;9.17;;;7.60;86.90;;;;;;4913963;29;20493;-41
2021/11/17 03:42:58;;;;;;;12.20;8.97;;;7.60;86.90;;;;;;4896251;29;20479;-41
2021/11/17 03:46:11;;;;;;;11.03;7.50;;;7.60;86.80;;;;;;4926044;29;20461;-42
2021/11/17 03:48:57;;;;;;;11.33;7.67;;;7.60;86.80;;;;;;4885058;29;20878;-41
2021/11/17 03:51:32;;;;;;;13.07;8.00;;;7.50;86.80;;;;;;4912399;29;20460;-41
2021/11/17 03:54:02;;;;;;;10.60;7.10;;;7.60;86.70;;;;;;4910247;29;20486;-41
2021/11/17 03:56:56;;;;;;;10.23;7.33;;;7.60;86.40;;;;;;4912556;29;20511;-41
2021/11/17 03:59:42;;;;;;;9.30;6.33;;;7.60;86.20;;;;;;4911134;29;20477;-41
2021/11/17 04:02:22;;;;;;;9.47;6.20;;;7.70;85.30;;;;;;4913478;29;20464;-42
2021/11/17 04:05:05;;;;;;;11.13;6.30;;;7.60;85.40;;;;;;4897965;29;20564;-41
2021/11/17 04:07:58;;;;;;;8.67;5.17;;;7.60;85.40;;;;;;4911086;29;20476;-42
2021/11/17 04:10:43;;;;;;;9.13;5.73;;;7.60;85.40;;;;;;4911952;29;21130;-41
2021/11/17 04:13:36;;;;;;;8.27;5.33;;;7.50;85.60;;;;;;4912867;29;20917;-41
2021/11/17 04:16:18;;;;;;;8.10;5.83;;;7.50;85.70;;;;;;4895879;29;20507;-41
2021/11/17 04:19:00;;;;;;;7.90;4.90;;;7.50;85.40;;;;;;4912477;29;20516;-41
2021/11/17 04:21:51;;;;;;;8.43;5.53;;;7.50;85.50;;;;;;4912485;29;20507;-41
2021/11/17 04:25:08;;;;;;;8.67;5.63;;;7.50;85.60;;;;;;4911256;29;20553;-40
2021/11/17 04:27:41;;;;;;;8.67;6.03;;;7.60;85.40;;;;;;4866764;29;21003;-41
2021/11/17 04:30:21;;;;;;;9.53;5.83;;;7.50;85.50;;;;;;4896928;29;21252;-41
2021/11/17 04:33:06;;;;;;;11.23;6.73;;;7.50;85.70;;;;;;4911781;29;20987;-41
2021/11/17 04:36:01;;;;;;;12.03;6.80;;;7.50;85.80;;;;;;4912348;29;20473;-41
2021/11/17 04:38:46;;;;;;;9.90;6.53;;;7.60;85.50;;;;;;4911009;29;20468;-41
2021/11/17 04:41:33;;;;;;;10.43;7.23;;;7.60;85.50;;;;;;4913523;29;20493;-41
2021/11/17 04:44:43;;;;;;;9.23;7.07;;;7.50;85.70;;;;;;4912297;29;20467;-41
2021/11/17 04:47:35;;;;;;;10.77;6.40;;;7.50;85.80;;;;;;4913278;29;20833;-41
2021/11/17 04:50:34;;;;;;;11.33;6.87;;;7.50;85.90;;;;;;4911389;29;20826;-41
2021/11/17 04:53:31;;;;;;;15.63;9.47;;;7.50;86.00;;;;;;4913475;29;20456;-41
2021/11/17 04:56:04;;;;;;;16.40;9.90;;;7.60;86.00;;;;;;4881695;29;20856;-41
2021/11/17 04:58:40;;;;;;;10.60;8.30;;;7.60;86.10;;;;;;4911240;29;21003;-41
2021/11/17 05:01:10;;;;;;;14.17;8.07;;;7.60;86.20;;;;;;4913903;29;20496;-41
2021/11/17 05:04:12;;;;;;;13.50;8.60;;;7.60;86.20;;;;;;4894879;29;20480;-41
2021/11/17 05:06:58;;;;;;;14.33;8.07;;;7.60;86.20;;;;;;4909981;29;20463;-41
2021/11/17 05:09:52;;;;;;;14.50;7.60;;;7.60;86.30;;;;;;4907930;29;20491;-41
2021/11/17 05:12:19;;;;;;;11.40;7.50;;;7.60;86.30;;;;;;4912656;29;20476;-40
2021/11/17 05:15:01;;;;;;;12.47;8.07;;;7.60;86.20;;;;;;4913378;29;20464;-41
2021/11/17 05:17:39;;;;;;;11.00;7.70;;;7.60;86.00;;;;;;4910547;29;20469;-41
2021/11/17 05:20:13;;;;;;;9.80;6.60;;;7.60;85.90;;;;;;4893807;29;21046;-41
2021/11/17 05:22:59;;;;;;;8.90;6.13;;;7.60;85.90;;;;;;4893937;29;20469;-41
2021/11/17 05:25:43;;;;;;;8.23;6.20;;;7.50;85.90;;;;;;4910239;29;21052;-41
2021/11/17 05:28:31;;;;;;;6.57;5.43;;;7.60;85.40;;;;;;4897173;29;20492;-42
2021/11/17 05:31:21;;;;;;;12.33;5.97;;;7.60;85.20;;;;;;4911260;29;20564;-41
2021/11/17 05:34:03;;;;;;;8.03;5.63;;;7.50;85.00;;;;;;4909850;29;20996;-40
2021/11/17 05:36:54;;;;;;;11.43;5.20;;;7.50;85.20;;;;;;4911503;29;20501;-42
2021/11/17 05:39:37;;;;;;;7.30;5.67;;;7.50;85.10;;;;;;4907222;29;20464;-41
2021/11/17 05:42:16;;;;;;;6.83;4.83;;;7.50;85.00;;;;;;4912348;29;20488;-41
2021/11/17 05:45:21;;;;;;;6.20;4.70;;;7.40;85.10;;;;;;4908741;29;20864;-41
2021/11/17 05:48:06;;;;;;;6.30;4.80;;;7.40;84.80;;;;;;4909159;29;20456;-41
2021/11/17 05:50:42;;;;;;;9.77;6.20;;;7.40;84.60;;;;;;4895985;29;20464;-41
2021/11/17 05:53:27;;;;;;;6.80;5.30;;;7.40;85.00;;;;;;4898388;29;20460;-42
2021/11/17 05:56:03;;;;;;;8.53;5.33;;;7.40;85.10;;;;;;4915257;29;20495;-41
2021/11/17 05:58:39;;;;;;;6.13;4.83;;;7.40;85.50;;;;;;4910542;29;20479;-42
2021/11/17 06:01:20;;;;;;;7.53;4.80;;;7.40;85.40;;;;;;4892574;29;20492;-41
2021/11/17 06:03:58;;;;;;;5.53;4.40;;;7.40;85.50;;;;;;4911060;29;20551;-41
2021/11/17 06:06:25;;;;;;;8.00;5.40;;;7.40;85.70;;;;;;4913497;29;20468;-42
2021/11/17 06:08:54;;;;;;;6.70;4.10;;;7.40;85.70;;;;;;4911907;29;20487;-42
2021/11/17 06:11:32;;;;;;;7.13;4.57;;;7.40;85.80;;;;;;4910009;29;20533;-42
2021/11/17 06:14:02;;;;;;;6.03;4.47;;;7.40;85.90;;;;;;4910641;29;20468;-41
2021/11/17 06:16:34;;;;;;;6.90;4.67;;;7.40;86.10;;;;;;4894446;29;20472;-42
2021/11/17 06:19:01;;;;;;;5.17;3.87;;;7.40;86.00;;;;;;4914865;29;20495;-41
2021/11/17 06:21:28;;;;;;;5.27;4.67;;;7.30;86.00;;;;;;4906197;29;20504;-41
2021/11/17 06:23:58;;;;;;;6.30;4.63;;;7.30;86.00;;;;;;4914176;29;20461;-41
2021/11/17 06:26:33;;;;;;;5.13;3.57;;;7.40;86.10;;;;;;4916634;29;20487;-41
2021/11/17 06:29:30;;;;;;;6.57;5.17;;;7.40;86.20;;;;;;4910305;29;20462;-41
2021/11/17 06:31:59;;;;;;;5.03;4.10;;;7.40;86.30;;;;;;4893820;29;20747;-42
2021/11/17 06:34:33;;;;;;;6.33;4.30;;;7.40;85.80;;;;;;4892853;29;20476;-41
2021/11/17 06:37:04;;;;;;;4.37;3.30;;;7.30;85.90;;;;;;4913808;29;20468;-41
2021/11/17 06:39:33;;;;;;;2.93;2.60;;;7.30;85.70;;;;;;4884540;29;20968;-41
2021/11/17 06:42:03;;;;;;;3.00;2.67;;;7.30;85.30;;;;;;4909332;29;20497;-41
2021/11/17 06:44:30;;;;;;;4.60;2.80;;;7.30;85.20;;;;;;4909911;29;20559;-41
2021/11/17 06:46:57;;;;;;;3.20;2.80;;;7.30;84.50;;;;;;4897643;29;20872;-41
2021/11/17 06:49:24;;;;;;;2.87;2.53;;;7.30;84.50;;;;;;4898861;29;20460;-41
2021/11/17 06:51:51;;;;;;;3.27;2.90;;;7.20;84.60;;;;;;4913571;29;20464;-41
2021/11/17 06:54:18;;;;;;;3.07;2.63;;;7.20;84.70;;;;;;4899843;29;20516;-41
2021/11/17 06:56:45;;;;;;;4.30;2.47;;;7.10;85.00;;;;;;4914935;29;20547;-41
2021/11/17 06:59:12;;;;;;;2.90;2.13;;;7.20;85.00;;;;;;4914241;29;20556;-41
2021/11/17 07:01:39;;;;;;;3.60;3.23;;;7.10;85.10;;;;;;4899210;29;20504;-42
2021/11/17 07:04:07;;;;;;;4.70;2.80;;;7.20;84.60;;;;;;4895989;29;20543;-41
2021/11/17 07:06:34;;;;;;;2.40;2.07;;;7.20;84.30;;;;;;4912364;29;20477;-41
2021/11/17 07:09:01;;;;;;;4.13;2.47;;;7.20;84.20;;;;;;4914959;29;20469;-41
2021/11/17 07:11:28;;;;;;;2.17;1.97;;;7.20;83.90;;;;;;4905804;29;20471;-41
2021/11/17 07:13:55;;;;;;;2.07;1.67;;;7.20;84.00;;;;;;4911645;29;20842;-41
2021/11/17 07:16:21;;;;;;;1.83;1.70;;;7.20;84.00;;;;;;4911693;29;20467;-41
2021/11/17 07:18:48;;;;;;;2.23;1.60;;;7.20;83.00;;;;;;4911733;29;20468;-41
2021/11/17 07:21:16;;;;;;;1.87;1.20;;;7.10;83.00;;;;;;4911846;29;21092;-41
2021/11/17 07:23:42;;;;;;;2.70;2.13;;;7.10;82.90;;;;;;4910527;29;20508;-41
2021/11/17 07:26:10;;;;;;;1.93;1.50;;;7.10;82.50;;;;;;4911621;29;20590;-41
2021/11/17 07:28:37;;;;;;;2.73;1.73;;;7.10;82.60;;;;;;4896204;29;20475;-41
2021/11/17 07:31:07;;;;;;;2.03;1.83;;;7.10;82.60;;;;;;4916085;29;20512;-40
2021/11/17 07:33:34;;;;;;;2.10;1.90;;;7.00;82.90;;;;;;4913598;29;20477;-40
2021/11/17 07:36:01;;;;;;;2.07;1.97;;;7.00;83.00;;;;;;4914572;29;20944;-42
2021/11/17 07:38:32;;;;;;;2.63;2.00;;;7.10;83.30;;;;;;4916017;29;20568;-40
2021/11/17 07:41:00;;;;;;;1.80;1.70;;;7.10;82.90;;;;;;4910375;29;20503;-41
2021/11/17 07:43:27;;;;;;;1.90;1.80;;;7.10;82.90;;;;;;4898876;29;20453;-41
2021/11/17 07:45:55;;;;;;;2.40;2.20;;;7.10;83.10;;;;;;4895563;29;20492;-41
2021/11/17 07:48:25;;;;;;;3.10;2.17;;;7.10;83.20;;;;;;4910808;29;20476;-41
2021/11/17 07:50:54;;;;;;;3.23;2.57;;;7.10;83.10;;;;;;4911845;29;20523;-40
2021/11/17 07:53:22;;;;;;;3.50;3.20;;;7.10;83.30;;;;;;4911625;29;20461;-41
2021/11/17 07:55:51;;;;;;;4.70;4.23;;;7.10;83.40;;;;;;4909052;29;20492;-41
2021/11/17 07:58:21;;;;;;;5.23;4.83;;;7.10;83.50;;;;;;4913748;29;20820;-40
2021/11/17 08:00:53;;;;;;;3.70;3.40;;;7.10;83.50;;;;;;4915299;29;20453;-40
2021/11/17 08:03:24;;;;;;;3.20;2.97;;;7.10;83.50;;;;;;4915157;29;20515;-40
2021/11/17 08:05:53;;;;;;;2.27;1.97;;;7.20;83.40;;;;;;4914935;29;20456;-41
2021/11/17 08:08:22;;;;;;;2.23;2.00;;;7.20;83.40;;;;;;4911595;29;20501;-41
2021/11/17 08:10:50;;;;;;;3.40;3.10;;;7.30;83.80;;;;;;4896572;29;20828;-41
2021/11/17 08:13:17;;;;;;;4.27;3.87;;;7.30;83.70;;;;;;4910642;29;20472;-41
2021/11/17 08:15:44;;;;;;;3.27;2.90;;;7.30;83.60;;;;;;4907645;29;20477;-41
2021/11/17 08:18:11;;;;;;;2.87;2.07;;;7.30;83.60;;;;;;4910248;29;20465;-41
2021/11/17 08:20:38;;;;;;;2.30;2.10;;;7.30;83.50;;;;;;4911944;29;20465;-41
2021/11/17 08:23:05;;;;;;;2.50;1.90;;;7.30;83.10;;;;;;4901554;29;20524;-41
2021/11/17 08:25:35;;;;;;;2.10;1.90;;;7.30;83.30;;;;;;4915276;29;20470;-41
2021/11/17 08:28:03;;;;;;;3.30;3.00;;;7.30;83.20;;;;;;4914891;29;20949;-41
2021/11/17 08:30:32;;;;;;;2.97;2.53;;;7.40;83.00;;;;;;4915058;29;20468;-42
2021/11/17 08:33:00;;;;;;;5.57;2.90;;;7.40;83.10;;;;;;4894358;29;20472;-41
2021/11/17 08:35:33;;;;;;;5.60;2.33;;;7.40;83.30;;;;;;4911923;29;20503;-41
2021/11/17 08:38:01;;;;;;;4.00;2.70;;;7.50;83.20;;;;;;4915162;29;20491;-41
2021/11/17 08:40:30;;;;;;;2.93;2.33;;;7.50;82.90;;;;;;4914376;29;20483;-41
2021/11/17 08:42:58;;;;;;;4.50;3.10;;;7.50;82.70;;;;;;4913406;29;20547;-41
2021/11/17 08:45:26;;;;;;;12.17;9.10;;;7.50;82.70;;;;;;4910033;29;20479;-41
2021/11/17 08:47:54;;;;;;;10.00;8.47;;;7.60;82.70;;;;;;4913589;29;20461;-41
2021/11/17 08:50:25;;;;;;;9.20;6.10;;;7.60;82.60;;;;;;4912646;29;20843;-41
2021/11/17 08:52:53;;;;;;;3.07;2.80;;;7.60;82.30;;;;;;4912295;29;20477;-41
2021/11/17 08:55:21;;;;;;;2.37;2.17;;;7.70;82.30;;;;;;4912494;29;20492;-41
2021/11/17 08:57:48;;;;;;;2.00;1.80;;;7.70;81.60;;;;;;4911029;29;20848;-41
2021/11/17 09:00:20;;;;;;;3.23;2.47;;;7.80;80.90;;;;;;4894995;29;20504;-41
2021/11/17 09:02:53;;;;;;;3.70;2.60;;;7.80;80.60;;;;;;4894731;29;20591;-41
2021/11/17 09:05:26;;;;;;;3.07;2.77;;;7.80;80.90;;;;;;4911455;29;20544;-41
2021/11/17 09:07:55;;;;;;;3.90;2.70;;;7.70;81.10;;;;;;4906965;29;20476;-41
2021/11/17 09:10:26;;;;;;;3.23;2.53;;;7.80;81.00;;;;;;4911870;29;20544;-41
2021/11/17 09:12:54;;;;;;;3.47;2.60;;;7.80;81.10;;;;;;4911379;29;20974;-41
2021/11/17 09:15:24;;;;;;;3.80;3.20;;;7.80;81.00;;;;;;4921510;29;20471;-41
2021/11/17 09:17:53;;;;;;;5.93;3.30;;;7.90;81.00;;;;;;4895880;29;20559;-41
2021/11/17 09:20:22;;;;;;;2.60;2.10;;;7.90;80.90;;;;;;4909639;29;20454;-41
2021/11/17 09:22:51;;;;;;;3.67;3.37;;;7.90;80.50;;;;;;4897043;29;20583;-41
2021/11/17 09:25:20;;;;;;;7.80;3.60;;;7.90;80.20;;;;;;4911276;29;20463;-41
2021/11/17 09:27:47;;;;;;;4.07;3.37;;;8.00;80.30;;;;;;4895161;29;20454;-41
2021/11/17 09:30:18;;;;;;;4.60;3.83;;;8.00;80.20;;;;;;4913243;29;20568;-41
2021/11/17 09:32:51;;;;;;;4.27;2.67;;;8.00;80.70;;;;;;4898943;29;20464;-41
2021/11/17 09:35:18;;;;;;;3.23;2.30;;;8.00;80.70;;;;;;4897326;29;20464;-41
2021/11/17 09:37:47;;;;;;;3.27;2.83;;;8.00;80.60;;;;;;4913463;29;20478;-41
2021/11/17 09:40:26;;;;;;;5.73;3.60;;;8.00;80.60;;;;;;4913877;29;20464;-41
2021/11/17 09:42:53;;;;;;;4.20;3.70;;;8.00;80.90;;;;;;4917087;29;20496;-41
2021/11/17 09:45:21;;;;;;;2.87;2.53;;;8.10;80.40;;;;;;4917206;29;20465;-41
2021/11/17 09:47:49;;;;;;;4.23;3.60;;;8.00;80.50;;;;;;4901825;29;20492;-41
2021/11/17 09:50:25;;;;;;;3.00;2.67;;;8.00;80.60;;;;;;4914594;29;20667;-41
2021/11/17 09:53:01;;;;;;;4.07;2.60;;;8.00;80.90;;;;;;4899320;29;21090;-41
2021/11/17 09:55:36;;;;;;;5.30;3.30;;;8.10;80.60;;;;;;4913868;29;20834;-41
2021/11/17 09:58:10;;;;;;;5.10;3.60;;;8.10;80.40;;;;;;4900918;29;20472;-41
2021/11/17 10:00:56;;;;;;;6.10;3.77;;;8.10;79.90;;;;;;4915276;29;20478;-41
2021/11/17 10:03:30;;;;;;;7.73;3.67;;;8.20;80.10;;;;;;4916830;29;20543;-41
2021/11/17 10:12:02;;;;;;;3.07;2.57;;;8.20;80.50;;;;;;4898426;29;20538;-41
2021/11/17 10:14:39;;;;;;;5.70;3.43;;;8.30;79.90;;;;;;4917469;29;20461;-41
2021/11/17 10:17:31;;;;;;;4.40;2.97;;;8.30;79.80;;;;;;4916337;29;20984;-41
2021/11/17 10:20:30;;;;;;;4.53;3.77;;;8.30;80.20;;;;;;4913142;29;21039;-41
2021/11/17 10:23:06;;;;;;;3.43;3.10;;;8.30;80.30;;;;;;4887494;29;20505;-41
2021/11/17 10:26:03;;;;;;;4.60;3.60;;;8.30;80.00;;;;;;4916515;29;20474;-41
2021/11/17 10:28:41;;;;;;;5.43;3.90;;;8.40;79.70;;;;;;4915846;29;20460;-41
2021/11/17 10:31:19;;;;;;;4.70;4.23;;;8.30;79.90;;;;;;4915386;29;20503;-41
2021/11/17 10:33:58;;;;;;;7.73;4.10;;;8.40;80.30;;;;;;4914410;29;20465;-41
2021/11/17 10:36:30;;;;;;;4.30;3.67;;;8.30;80.40;;;;;;4909833;29;20528;-41
2021/11/17 10:39:12;;;;;;;3.90;2.90;;;8.40;80.50;;;;;;4911106;29;20461;-42
2021/11/17 10:42:00;;;;;;;5.10;3.93;;;8.40;80.50;;;;;;4905283;29;21161;-41
2021/11/17 10:44:50;;;;;;;5.53;3.90;;;8.50;79.40;;;;;;4907725;29;20461;-41
2021/11/17 10:47:38;;;;;;;5.90;3.90;;;8.50;79.30;;;;;;4911136;29;20495;-41
2021/11/17 10:50:34;;;;;;;4.33;2.50;;;8.50;79.70;;;;;;4909279;29;21055;-42
2021/11/17 10:53:10;;;;;;;5.50;3.53;;;8.60;79.70;;;;;;4902797;29;20472;-42
2021/11/17 10:55:39;;;;;;;5.57;3.23;;;8.60;79.40;;;;;;4893359;29;20488;-42
2021/11/17 10:58:11;;;;;;;4.03;3.13;;;8.60;79.60;;;;;;4908093;29;20465;-42
2021/11/17 11:00:51;;;;;;;5.07;3.53;;;8.60;79.60;;;;;;4892624;29;20468;-42
2021/11/17 11:03:21;;;;;;;6.00;2.90;;;8.70;79.10;;;;;;4909240;29;20527;-42
2021/11/17 11:06:00;;;;;;;4.63;3.40;;;8.80;78.30;;;;;;4906572;29;20473;-42
2021/11/17 11:08:55;;;;;;;4.03;3.60;;;8.80;78.10;;;;;;4909311;29;20855;-42
2021/11/17 11:11:23;;;;;;;5.83;3.93;;;8.80;78.80;;;;;;4898991;29;20469;-42
2021/11/17 11:13:56;;;;;;;4.57;3.30;;;8.90;78.10;;;;;;4907238;29;20464;-42
2021/11/17 11:16:47;;;;;;;3.20;2.80;;;8.80;78.20;;;;;;4908917;29;20480;-42
2021/11/17 11:19:14;;;;;;;3.70;3.13;;;8.80;78.80;;;;;;4909471;29;20480;-42
2021/11/17 11:21:41;;;;;;;4.60;2.90;;;8.90;78.40;;;;;;4906663;29;20475;-42
2021/11/17 11:24:14;;;;;;;4.90;3.70;;;8.90;78.20;;;;;;4909960;29;20473;-42
2021/11/17 11:26:59;;;;;;;5.07;3.30;;;8.90;78.50;;;;;;4910827;29;20455;-42
2021/11/17 11:29:34;;;;;;;5.80;4.67;;;9.00;78.20;;;;;;4893427;29;20479;-42
2021/11/17 11:32:29;;;;;;;4.87;2.87;;;9.00;77.70;;;;;;4892432;29;20487;-42
2021/11/17 11:34:58;;;;;;;5.67;3.50;;;8.90;77.80;;;;;;4897387;29;21061;-42
2021/11/17 11:37:25;;;;;;;5.43;3.40;;;8.90;78.60;;;;;;4908391;29;20473;-42
2021/11/17 11:40:01;;;;;;;5.20;3.20;;;9.00;78.40;;;;;;4909503;29;20449;-42
2021/11/17 11:42:58;;;;;;;4.90;2.80;;;8.90;78.80;;;;;;4905460;29;20496;-42
2021/11/17 11:45:25;;;;;;;2.70;2.50;;;8.90;78.60;;;;;;4907503;29;20573;-42
2021/11/17 11:48:32;;;;;;;3.40;2.33;;;8.90;78.90;;;;;;4892226;29;20449;-42
2021/11/17 11:51:37;;;;;;;6.50;3.10;;;8.90;79.00;;;;;;4908261;29;20488;-42
2021/11/17 11:54:15;;;;;;;4.77;3.20;;;8.90;79.40;;;;;;4908843;29;20469;-43
2021/11/17 11:57:13;;;;;;;4.50;2.73;;;8.90;78.90;;;;;;4905775;29;20510;-43
2021/11/17 11:59:41;;;;;;;2.63;2.40;;;8.90;78.50;;;;;;4909313;29;20861;-42
2021/11/17 12:02:12;;;;;;;5.00;2.60;;;8.90;79.00;;;;;;4906108;29;20480;-42
2021/11/17 12:04:53;;;;;;;2.87;2.10;;;8.90;79.20;;;;;;4909273;29;20492;-42
2021/11/17 12:07:37;;;;;;;3.40;3.10;;;8.90;78.80;;;;;;4908876;29;21006;-42
2021/11/17 12:10:12;;;;;;;3.50;2.67;;;8.90;79.20;;;;;;4903446;29;20469;-42
2021/11/17 12:12:41;;;;;;;3.50;2.63;;;8.90;79.40;;;;;;4904894;29;20901;-42
2021/11/17 12:15:11;;;;;;;3.17;2.87;;;8.90;79.70;;;;;;4900551;29;20500;-42
2021/11/17 12:17:39;;;;;;;4.00;2.70;;;9.00;79.40;;;;;;4888472;29;20523;-42
2021/11/17 12:20:33;;;;;;;3.10;2.80;;;9.10;79.00;;;;;;4890676;29;20468;-42
2021/11/17 12:23:16;;;;;;;3.00;2.37;;;9.10;79.10;;;;;;4911126;29;21043;-42
2021/11/17 12:26:11;;;;;;;2.93;2.73;;;9.20;79.30;;;;;;4910912;29;20721;-42
2021/11/17 12:28:58;;;;;;;3.30;2.43;;;9.30;78.70;;;;;;4892784;29;20468;-42
2021/11/17 12:31:29;;;;;;;3.10;2.83;;;9.40;78.00;;;;;;4909777;29;20961;-42
2021/11/17 12:34:08;;;;;;;3.40;3.10;;;9.40;78.10;;;;;;4910746;29;20481;-42
2021/11/17 12:36:46;;;;;;;4.10;3.23;;;9.40;77.90;;;;;;4910959;29;20752;-42
2021/11/17 12:39:17;;;;;;;6.27;3.60;;;9.40;77.80;;;;;;4906398;29;20999;-42
2021/11/17 12:41:44;;;;;;;4.33;3.37;;;9.40;77.70;;;;;;4911306;29;20469;-42
2021/11/17 12:44:21;;;;;;;9.70;4.57;;;9.30;78.10;;;;;;4909988;29;20484;-42
2021/11/17 12:47:13;;;;;;;4.30;3.90;;;9.30;78.10;;;;;;4910195;29;20480;-42
2021/11/17 12:49:40;;;;;;;8.33;5.40;;;9.30;78.20;;;;;;4898459;29;20997;-43
2021/11/17 12:52:21;;;;;;;3.33;3.03;;;9.30;78.70;;;;;;4908008;29;20469;-43
2021/11/17 12:54:58;;;;;;;3.50;1.90;;;9.30;78.50;;;;;;4909759;29;20449;-43
2021/11/17 12:57:39;;;;;;;2.23;1.97;;;9.30;78.20;;;;;;4911509;29;22348;-43
2021/11/17 13:00:12;;;;;;;2.37;2.13;;;9.30;78.40;;;;;;4897655;29;20463;-43
2021/11/17 13:03:26;;;;;;;2.53;2.30;;;9.30;78.30;;;;;;4897651;29;20492;-43
2021/11/17 13:06:02;;;;;;;2.83;2.07;;;9.30;78.80;;;;;;4833987;29;20459;-42
2021/11/17 13:08:34;;;;;;;2.07;1.97;;;9.30;78.90;;;;;;4907652;29;20464;-42
2021/11/17 13:11:01;;;;;;;3.40;1.70;;;9.30;78.40;;;;;;4914386;29;20448;-42
2021/11/17 13:13:39;;;;;;;2.20;2.00;;;9.30;78.50;;;;;;4897455;29;20467;-42
2021/11/17 13:16:18;;;;;;;2.80;2.60;;;9.30;78.90;;;;;;4898708;29;20452;-42
2021/11/17 13:18:45;;;;;;;2.37;2.17;;;9.30;78.90;;;;;;4912746;29;20483;-43
2021/11/17 13:21:20;;;;;;;2.67;1.77;;;9.30;78.50;;;;;;4914498;29;21037;-43
2021/11/17 13:23:56;;;;;;;2.40;1.90;;;9.30;78.50;;;;;;4893725;29;20530;-42
2021/11/17 13:26:41;;;;;;;2.20;2.10;;;9.30;78.70;;;;;;4909066;29;20475;-42
2021/11/17 13:29:44;;;;;;;3.53;2.73;;;9.30;78.70;;;;;;4912580;29;20497;-42
2021/11/17 13:32:13;;;;;;;4.23;3.10;;;9.30;78.60;;;;;;4905804;29;20647;-42
2021/11/17 13:34:51;;;;;;;4.17;3.10;;;9.30;78.20;;;;;;4894443;29;21168;-43
2021/11/17 13:37:39;;;;;;;2.80;2.30;;;9.30;78.70;;;;;;4909334;29;20467;-42
2021/11/17 13:40:17;;;;;;;4.20;2.07;;;9.30;78.60;;;;;;4909425;29;20467;-42
2021/11/17 13:42:48;;;;;;;2.70;2.30;;;9.30;78.60;;;;;;4909354;29;21012;-42
2021/11/17 13:45:18;;;;;;;3.73;2.07;;;9.30;78.50;;;;;;4909660;29;20543;-42
2021/11/17 13:47:47;;;;;;;2.57;2.37;;;9.30;78.70;;;;;;4890301;29;20528;-42
2021/11/17 13:50:16;;;;;;;3.67;2.67;;;9.30;78.90;;;;;;4911344;29;20469;-42
2021/11/17 13:52:46;;;;;;;2.50;1.60;;;9.30;79.10;;;;;;4913631;29;20461;-43
2021/11/17 13:55:17;;;;;;;2.50;1.90;;;9.30;78.90;;;;;;4907060;29;20507;-43
2021/11/17 13:57:46;;;;;;;3.37;2.20;;;9.40;78.30;;;;;;4892288;29;20476;-43
2021/11/17 14:00:15;;;;;;;2.57;2.00;;;9.40;78.50;;;;;;4913473;29;20463;-43
2021/11/17 14:02:44;;;;;;;3.30;2.10;;;9.40;78.70;;;;;;4909927;29;20504;-43
2021/11/17 14:05:11;;;;;;;1.87;1.77;;;9.40;78.60;;;;;;4909663;29;20468;-43
2021/11/17 14:07:38;;;;;;;5.90;2.13;;;9.40;78.80;;;;;;4910374;29;20465;-43
2021/11/17 14:10:07;;;;;;;3.00;2.50;;;9.30;79.20;;;;;;4911168;29;20449;-43
2021/11/17 14:12:35;;;;;;;3.23;2.87;;;9.30;79.20;;;;;;4907656;29;20471;-43
2021/11/17 14:15:04;;;;;;;4.23;2.27;;;9.30;79.30;;;;;;4911059;29;20465;-42
2021/11/17 14:17:31;;;;;;;3.73;1.97;;;9.40;78.50;;;;;;4895801;29;20464;-42
2021/11/17 14:19:57;;;;;;;2.87;2.40;;;9.40;78.50;;;;;;4913210;29;20844;-42
2021/11/17 14:22:25;;;;;;;3.73;2.00;;;9.30;78.90;;;;;;4909082;29;20470;-42
2021/11/17 14:24:56;;;;;;;3.10;2.07;;;9.30;79.10;;;;;;4910928;29;20519;-42
2021/11/17 14:27:24;;;;;;;3.13;2.83;;;9.30;79.30;;;;;;4911083;29;20464;-42
2021/11/17 14:29:56;;;;;;;5.73;2.50;;;9.30;79.50;;;;;;4912507;29;20760;-42
2021/11/17 14:32:32;;;;;;;3.70;2.90;;;9.40;79.70;;;;;;4893528;29;20465;-42
2021/11/17 14:35:00;;;;;;;3.50;2.53;;;9.30;79.60;;;;;;4896166;29;20480;-42
2021/11/17 14:37:28;;;;;;;4.03;2.77;;;9.30;79.50;;;;;;4892173;29;20470;-42
2021/11/17 14:39:55;;;;;;;7.13;4.30;;;9.30;79.80;;;;;;4911643;29;20465;-42
2021/11/17 14:42:22;;;;;;;7.80;6.03;;;9.40;79.60;;;;;;4911748;29;20468;-42
2021/11/17 14:44:49;;;;;;;4.73;3.90;;;9.30;79.50;;;;;;4896900;29;20499;-42
2021/11/17 14:47:16;;;;;;;3.97;2.80;;;9.30;79.70;;;;;;4903072;29;20465;-42
2021/11/17 14:49:43;;;;;;;4.80;3.37;;;9.30;79.90;;;;;;4909427;29;20469;-42
2021/11/17 14:52:17;;;;;;;5.10;3.33;;;9.30;80.10;;;;;;4910233;29;20980;-42
2021/11/17 14:54:45;;;;;;;6.60;4.50;;;9.30;80.00;;;;;;4897997;29;20472;-42
2021/11/17 14:57:14;;;;;;;5.13;3.60;;;9.20;80.70;;;;;;4910016;29;20465;-42
2021/11/17 14:59:41;;;;;;;3.80;3.10;;;9.20;81.00;;;;;;4904406;29;20472;-42
2021/11/17 15:02:08;;;;;;;3.93;3.43;;;9.10;81.20;;;;;;4905740;29;20452;-42
2021/11/17 15:04:35;;;;;;;3.60;3.30;;;9.10;81.70;;;;;;4909021;29;20569;-42
2021/11/17 15:07:05;;;;;;;4.40;4.00;;;9.00;82.40;;;;;;4910652;29;20460;-42
2021/11/17 15:09:32;;;;;;;4.37;3.90;;;9.00;82.70;;;;;;4895135;29;20535;-42
2021/11/17 15:12:07;;;;;;;5.33;4.03;;;9.00;82.70;;;;;;4897114;29;20453;-42
2021/11/17 15:14:36;;;;;;;7.80;4.10;;;9.00;83.20;;;;;;4909738;29;20472;-42
2021/11/17 15:17:04;;;;;;;4.53;4.13;;;9.00;83.30;;;;;;4910902;29;20463;-43
2021/11/17 15:19:31;;;;;;;9.10;5.07;;;8.90;83.60;;;;;;4912892;29;20465;-43
2021/11/17 15:21:58;;;;;;;4.67;4.23;;;9.00;83.80;;;;;;4908726;29;20465;-43
2021/11/17 15:24:29;;;;;;;5.73;4.37;;;9.00;83.50;;;;;;4908140;29;20611;-43
2021/11/17 15:27:08;;;;;;;6.97;5.50;;;8.90;83.80;;;;;;4906952;29;20503;-43
2021/11/17 15:29:37;;;;;;;9.30;5.60;;;8.90;83.90;;;;;;4909109;29;20508;-43
2021/11/17 15:32:05;;;;;;;6.80;5.40;;;8.80;84.30;;;;;;4909655;29;20844;-43
2021/11/17 15:34:32;;;;;;;9.30;5.93;;;8.80;84.40;;;;;;4912295;29;20475;-43
2021/11/17 15:36:59;;;;;;;8.67;6.97;;;8.80;84.60;;;;;;4908916;29;20460;-43
2021/11/17 15:39:25;;;;;;;11.57;6.87;;;8.90;84.50;;;;;;4907267;29;20479;-43
2021/11/17 15:41:53;;;;;;;7.43;6.30;;;8.90;84.50;;;;;;4894986;29;20457;-43
2021/11/17 15:44:20;;;;;;;6.20;5.57;;;8.90;84.60;;;;;;4909037;29;20485;-43
2021/11/17 15:46:56;;;;;;;6.57;5.40;;;8.90;84.70;;;;;;4893390;29;20546;-43
2021/11/17 15:49:25;;;;;;;9.00;6.03;;;8.90;84.50;;;;;;4909646;29;20464;-43
2021/11/17 15:51:52;;;;;;;8.03;5.90;;;8.80;84.60;;;;;;4911055;29;21038;-43
2021/11/17 15:54:20;;;;;;;8.00;6.20;;;8.90;84.30;;;;;;4911837;29;20552;-44
2021/11/17 15:56:47;;;;;;;8.70;6.60;;;8.90;84.20;;;;;;4893072;29;20500;-43
2021/11/17 15:59:16;;;;;;;7.80;6.20;;;8.90;83.80;;;;;;4907468;29;20464;-42
2021/11/17 16:01:45;;;;;;;10.43;7.30;;;8.90;83.80;;;;;;4907775;29;21012;-42
2021/11/17 16:04:13;;;;;;;9.23;8.13;;;8.90;83.70;;;;;;4907903;29;20567;-42
2021/11/17 16:07:29;;;;;;;8.27;7.00;;;8.90;83.90;;;;;;4893151;29;20469;-42
2021/11/17 16:09:56;;;;;;;10.20;8.20;;;8.90;83.90;;;;;;4909139;29;20812;-42
2021/11/17 16:12:26;;;;;;;9.43;6.50;;;8.90;83.80;;;;;;4909613;29;20472;-42
2021/11/17 16:14:55;;;;;;;8.87;6.70;;;8.90;83.70;;;;;;4909049;29;22118;-42